Lame Deer, Montana
Current Conditions -  °F | °C
As of 3:53 AM on Friday 24 Oct 2014 (Local Time) from KSHR Reporting Station
Clear Clear  
Wind Chill: 43°   Ceiling: Unl
Heat Index: 43°   Visibility: 10mi
Dew Point: 29°   Wind: 0mph
Humidity: 58%   Direction: NA
Pressure: 29.93"   Gusts: NA
Location:  45.63°N, 106.67°W
Report Text: KSHR 240953Z AUTO 00000KT 10SM CLR 06/M02 A2993 RMK AO2 SLP120 T00611017 TSNO
Loading
Personal Weather Stations






























Interactive Weather Map
Tropical Storm Tracking
New forecast layout! Learn more

10-Day Weather Forecast

Advertisements
Track Severe Weather on mobile